Agency, Missouri
Current Conditions -  °F | °C
As of 11:18 AM on Sunday 23 Nov 2014 (Local Time) from KSTJ Reporting Station
Haze Haze  
Wind Chill: 55°   Ceiling: 900
Heat Index: 55°   Visibility: 3mi
Dew Point: 54°   Wind: 3mph
Humidity: 96%   Direction: 190°S
Pressure: 29.44"   Gusts: NA
Location:  39.64°N, 94.74°W
Report Text: KSTJ 231718Z 19003KT 3SM BR BKN009 BKN013 OVC041 13/12 A2944 RMK AO2 RAE12 CIG 007V012 P0001 T01280122
Loading
Personal Weather Stations






























Interactive Weather Map New forecast layout! Learn more

10-Day Weather Forecast

Advertisements
Track Severe Weather on mobile